Terminal Aerodrome Forecast
Issued by NWS

Home | Current Version | Previous Version | Text Only | Print | Product List | Glossary Off
Versions: 1 2 3 4 5 6 7 8 9 10 11 12 13 14 15 16 17

000
FTUS44 KTSA 281341 AAA
TAFMLC
TAF AMD
KMLC 281341Z 2814/0112 18012G18KT P6SM OVC012
      TEMPO 2814/2816 4SM HZ
     FM282000 20014G20KT P6SM BKN025 BKN250
     FM282200 20012G20KT P6SM SCT030 BKN250
     FM010600 20012G20KT P6SM BKN025 BKN250 PROB30 0106/0109 5SM
      -TSRA BKN025CB
     FM010900 31015G25KT P6SM BKN250=

USA.gov is the U.S. government's official web portal to all federal, state and local government web resources and services.